sensor_id;sensor_type;location;lat;lon;timestamp;pressure;altitude;pressure_sealevel;temperature;humidity
7888;BME280;3989;48.810;9.208;2024-01-07T00:02:26;98195.03;;;4.63;100.00
7888;BME280;3989;48.810;9.208;2024-01-07T00:04:53;98187.28;;;4.61;100.00
7888;BME280;3989;48.810;9.208;2024-01-07T00:07:20;98194.91;;;4.64;100.00
7888;BME280;3989;48.810;9.208;2024-01-07T00:09:47;98126.56;;;4.18;100.00
7888;BME280;3989;48.810;9.208;2024-01-07T00:12:14;98195.34;;;4.60;100.00
7888;BME280;3989;48.810;9.208;2024-01-07T00:14:43;98101.78;;;3.93;100.00
7888;BME280;3989;48.810;9.208;2024-01-07T00:17:10;98203.13;;;4.61;100.00
7888;BME280;3989;48.810;9.208;2024-01-07T00:19:37;98201.63;;;4.59;100.00
7888;BME280;3989;48.810;9.208;2024-01-07T00:22:05;98155.50;;;4.28;100.00
7888;BME280;3989;48.810;9.208;2024-01-07T00:24:32;98199.50;;;4.62;100.00
7888;BME280;3989;48.810;9.208;2024-01-07T00:26:59;98204.63;;;4.64;100.00
7888;BME280;3989;48.810;9.208;2024-01-07T00:29:25;98190.06;;;4.60;100.00
7888;BME280;3989;48.810;9.208;2024-01-07T00:31:54;98203.13;;;4.61;100.00
7888;BME280;3989;48.810;9.208;2024-01-07T00:34:21;98145.56;;;4.21;100.00
7888;BME280;3989;48.810;9.208;2024-01-07T00:36:48;98185.19;;;4.47;100.00
7888;BME280;3989;48.810;9.208;2024-01-07T00:39:15;98202.97;;;4.63;100.00
7888;BME280;3989;48.810;9.208;2024-01-07T00:41:42;98144.19;;;4.35;100.00
7888;BME280;3989;48.810;9.208;2024-01-07T00:44:09;98134.38;;;4.28;100.00
7888;BME280;3989;48.810;9.208;2024-01-07T00:46:35;98137.72;;;4.30;100.00
7888;BME280;3989;48.810;9.208;2024-01-07T00:49:04;98143.66;;;4.32;100.00
7888;BME280;3989;48.810;9.208;2024-01-07T00:51:31;98203.88;;;4.71;100.00
7888;BME280;3989;48.810;9.208;2024-01-07T00:53:58;98215.75;;;4.75;100.00
7888;BME280;3989;48.810;9.208;2024-01-07T00:56:25;98205.50;;;4.72;100.00
7888;BME280;3989;48.810;9.208;2024-01-07T00:58:52;98213.28;;;4.74;100.00
7888;BME280;3989;48.810;9.208;2024-01-07T01:01:19;98200.00;;;4.66;100.00
7888;BME280;3989;48.810;9.208;2024-01-07T01:03:46;98176.03;;;4.59;100.00
7888;BME280;3989;48.810;9.208;2024-01-07T01:06:15;98192.09;;;4.66;100.00
7888;BME280;3989;48.810;9.208;2024-01-07T01:08:42;98160.75;;;4.45;100.00
7888;BME280;3989;48.810;9.208;2024-01-07T01:11:09;98216.38;;;4.69;100.00
7888;BME280;3989;48.810;9.208;2024-01-07T01:13:36;98113.44;;;4.08;100.00
7888;BME280;3989;48.810;9.208;2024-01-07T01:16:04;98204.13;;;4.60;100.00
7888;BME280;3989;48.810;9.208;2024-01-07T01:18:31;98222.19;;;4.73;100.00
7888;BME280;3989;48.810;9.208;2024-01-07T01:20:58;98216.25;;;4.71;100.00
7888;BME280;3989;48.810;9.208;2024-01-07T01:23:27;98209.28;;;4.70;100.00
7888;BME280;3989;48.810;9.208;2024-01-07T01:25:54;98217.94;;;4.80;100.00
7888;BME280;3989;48.810;9.208;2024-01-07T01:28:21;98161.06;;;4.42;100.00
7888;BME280;3989;48.810;9.208;2024-01-07T01:30:48;98154.13;;;4.41;100.00
7888;BME280;3989;48.810;9.208;2024-01-07T01:33:15;98217.88;;;4.72;100.00
7888;BME280;3989;48.810;9.208;2024-01-07T01:35:42;98158.25;;;4.44;100.00
7888;BME280;3989;48.810;9.208;2024-01-07T01:38:09;98228.34;;;4.82;100.00
7888;BME280;3989;48.810;9.208;2024-01-07T01:40:38;98231.38;;;4.87;100.00
7888;BME280;3989;48.810;9.208;2024-01-07T01:43:05;98207.63;;;4.69;100.00
7888;BME280;3989;48.810;9.208;2024-01-07T01:45:32;98209.81;;;4.73;100.00
7888;BME280;3989;48.810;9.208;2024-01-07T01:47:59;98219.41;;;4.74;100.00
7888;BME280;3989;48.810;9.208;2024-01-07T01:50:27;98203.97;;;4.62;100.00
7888;BME280;3989;48.810;9.208;2024-01-07T01:52:54;98221.16;;;4.66;100.00
7888;BME280;3989;48.810;9.208;2024-01-07T01:55:22;98223.50;;;4.69;100.00
7888;BME280;3989;48.810;9.208;2024-01-07T01:57:52;98243.22;;;4.74;100.00
7888;BME280;3989;48.810;9.208;2024-01-07T02:00:19;98235.09;;;4.76;100.00
7888;BME280;3989;48.810;9.208;2024-01-07T02:02:46;98134.66;;;4.16;100.00
7888;BME280;3989;48.810;9.208;2024-01-07T02:05:14;98195.00;;;4.55;100.00
7888;BME280;3989;48.810;9.208;2024-01-07T02:07:42;98178.22;;;4.38;100.00
7888;BME280;3989;48.810;9.208;2024-01-07T02:10:12;98126.72;;;4.16;100.00
7888;BME280;3989;48.810;9.208;2024-01-07T02:12:39;98153.03;;;4.26;100.00
7888;BME280;3989;48.810;9.208;2024-01-07T02:15:08;98132.81;;;4.17;100.00
7888;BME280;3989;48.810;9.208;2024-01-07T02:17:35;98237.59;;;4.78;100.00
7888;BME280;3989;48.810;9.208;2024-01-07T02:20:03;98196.31;;;4.59;100.00
7888;BME280;3989;48.810;9.208;2024-01-07T02:22:30;98224.69;;;4.74;100.00
7888;BME280;3989;48.810;9.208;2024-01-07T02:24:58;98190.16;;;4.50;100.00
7888;BME280;3989;48.810;9.208;2024-01-07T02:27:25;98230.13;;;4.73;100.00
7888;BME280;3989;48.810;9.208;2024-01-07T02:29:52;98198.09;;;4.50;100.00
7888;BME280;3989;48.810;9.208;2024-01-07T02:32:19;98236.59;;;4.78;100.00
7888;BME280;3989;48.810;9.208;2024-01-07T02:34:46;98193.69;;;4.59;100.00
7888;BME280;3989;48.810;9.208;2024-01-07T02:37:13;98239.09;;;4.80;100.00
7888;BME280;3989;48.810;9.208;2024-01-07T02:39:40;98232.63;;;4.74;100.00
7888;BME280;3989;48.810;9.208;2024-01-07T02:42:09;98180.53;;;4.41;100.00
7888;BME280;3989;48.810;9.208;2024-01-07T02:44:36;98158.53;;;4.33;100.00
7888;BME280;3989;48.810;9.208;2024-01-07T02:47:04;98180.75;;;4.48;100.00
7888;BME280;3989;48.810;9.208;2024-01-07T02:49:33;98173.44;;;4.42;100.00
7888;BME280;3989;48.810;9.208;2024-01-07T02:52:01;98229.34;;;4.81;100.00
7888;BME280;3989;48.810;9.208;2024-01-07T02:54:32;98143.38;;;4.17;100.00
7888;BME280;3989;48.810;9.208;2024-01-07T02:56:59;98187.00;;;4.47;100.00
7888;BME280;3989;48.810;9.208;2024-01-07T02:59:28;98177.06;;;4.41;100.00
7888;BME280;3989;48.810;9.208;2024-01-07T03:01:55;98235.09;;;4.76;100.00
7888;BME280;3989;48.810;9.208;2024-01-07T03:04:22;98199.44;;;4.54;100.00
7888;BME280;3989;48.810;9.208;2024-01-07T03:06:49;98241.09;;;4.78;100.00
7888;BME280;3989;48.810;9.208;2024-01-07T03:09:16;98227.50;;;4.73;100.00
7888;BME280;3989;48.810;9.208;2024-01-07T03:11:43;98225.31;;;4.68;100.00
7888;BME280;3989;48.810;9.208;2024-01-07T03:14:10;98238.13;;;4.81;100.00
7888;BME280;3989;48.810;9.208;2024-01-07T03:16:39;98245.88;;;4.83;100.00
7888;BME280;3989;48.810;9.208;2024-01-07T03:19:06;98243.41;;;4.81;100.00
7888;BME280;3989;48.810;9.208;2024-01-07T03:21:33;98252.31;;;4.80;100.00
7888;BME280;3989;48.810;9.208;2024-01-07T03:24:00;98259.59;;;4.78;100.00
7888;BME280;3989;48.810;9.208;2024-01-07T03:26:29;98241.66;;;4.72;100.00
7888;BME280;3989;48.810;9.208;2024-01-07T03:28:58;98159.06;;;4.18;100.00
7888;BME280;3989;48.810;9.208;2024-01-07T03:31:26;98166.16;;;4.18;100.00
7888;BME280;3989;48.810;9.208;2024-01-07T03:33:55;98256.72;;;4.71;100.00
7888;BME280;3989;48.810;9.208;2024-01-07T03:36:22;98250.72;;;4.61;100.00
7888;BME280;3989;48.810;9.208;2024-01-07T03:38:49;98253.50;;;4.60;100.00
7888;BME280;3989;48.810;9.208;2024-01-07T03:41:17;98215.63;;;4.34;100.00
7888;BME280;3989;48.810;9.208;2024-01-07T03:43:44;98210.31;;;4.26;100.00
7888;BME280;3989;48.810;9.208;2024-01-07T03:46:12;98220.63;;;4.37;100.00
7888;BME280;3989;48.810;9.208;2024-01-07T03:48:39;98159.03;;;3.93;100.00
7888;BME280;3989;48.810;9.208;2024-01-07T03:51:09;98245.75;;;4.41;100.00
7888;BME280;3989;48.810;9.208;2024-01-07T03:53:36;98158.44;;;3.81;100.00
7888;BME280;3989;48.810;9.208;2024-01-07T03:56:04;98219.72;;;4.10;100.00
7888;BME280;3989;48.810;9.208;2024-01-07T03:58:31;98158.66;;;3.70;100.00
7888;BME280;3989;48.810;9.208;2024-01-07T04:01:00;98242.63;;;4.19;100.00
7888;BME280;3989;48.810;9.208;2024-01-07T04:03:27;98269.91;;;4.28;100.00
7888;BME280;3989;48.810;9.208;2024-01-07T04:05:54;98248.41;;;4.23;100.00
7888;BME280;3989;48.810;9.208;2024-01-07T04:08:22;98253.41;;;4.26;100.00
7888;BME280;3989;48.810;9.208;2024-01-07T04:10:49;98262.81;;;4.29;100.00
7888;BME280;3989;48.810;9.208;2024-01-07T04:13:16;98218.47;;;3.97;100.00
7888;BME280;3989;48.810;9.208;2024-01-07T04:15:43;98219.31;;;3.97;100.00
7888;BME280;3989;48.810;9.208;2024-01-07T04:18:10;98236.47;;;4.01;100.00
7888;BME280;3989;48.810;9.208;2024-01-07T04:20:37;98270.34;;;4.23;100.00
7888;BME280;3989;48.810;9.208;2024-01-07T04:23:04;98235.56;;;4.10;100.00
7888;BME280;3989;48.810;9.208;2024-01-07T04:25:33;98251.94;;;4.14;100.00
7888;BME280;3989;48.810;9.208;2024-01-07T04:28:00;98242.22;;;4.14;100.00
7888;BME280;3989;48.810;9.208;2024-01-07T04:30:27;98241.38;;;4.14;100.00
7888;BME280;3989;48.810;9.208;2024-01-07T04:32:54;98284.31;;;4.34;100.00
7888;BME280;3989;48.810;9.208;2024-01-07T04:35:21;98286.28;;;4.32;100.00
7888;BME280;3989;48.810;9.208;2024-01-07T04:37:48;98201.94;;;3.77;100.00
7888;BME280;3989;48.810;9.208;2024-01-07T04:40:15;98294.66;;;4.27;100.00
7888;BME280;3989;48.810;9.208;2024-01-07T04:42:44;98187.59;;;3.62;100.00
7888;BME280;3989;48.810;9.208;2024-01-07T04:45:11;98291.47;;;4.23;100.00
7888;BME280;3989;48.810;9.208;2024-01-07T04:47:38;98245.00;;;3.95;100.00
7888;BME280;3989;48.810;9.208;2024-01-07T04:50:05;98248.03;;;4.00;100.00
7888;BME280;3989;48.810;9.208;2024-01-07T04:52:33;98294.97;;;4.24;100.00
7888;BME280;3989;48.810;9.208;2024-01-07T04:54:59;98199.38;;;3.67;100.00
7888;BME280;3989;48.810;9.208;2024-01-07T04:57:27;98266.22;;;4.03;100.00
7888;BME280;3989;48.810;9.208;2024-01-07T04:59:55;98275.25;;;4.01;100.00
7888;BME280;3989;48.810;9.208;2024-01-07T05:02:22;98220.25;;;3.79;100.00
7888;BME280;3989;48.810;9.208;2024-01-07T05:04:49;98275.41;;;3.99;100.00
7888;BME280;3989;48.810;9.208;2024-01-07T05:07:16;98304.69;;;4.23;100.00
7888;BME280;3989;48.810;9.208;2024-01-07T05:09:43;98313.31;;;4.26;100.00
7888;BME280;3989;48.810;9.208;2024-01-07T05:12:10;98284.78;;;4.11;100.00
7888;BME280;3989;48.810;9.208;2024-01-07T05:14:37;98297.38;;;4.17;100.00
7888;BME280;3989;48.810;9.208;2024-01-07T05:17:06;98245.25;;;3.84;100.00
7888;BME280;3989;48.810;9.208;2024-01-07T05:19:33;98291.03;;;4.10;100.00
7888;BME280;3989;48.810;9.208;2024-01-07T05:22:01;98292.88;;;4.10;100.00
7888;BME280;3989;48.810;9.208;2024-01-07T05:24:28;98278.72;;;4.01;100.00
7888;BME280;3989;48.810;9.208;2024-01-07T05:26:55;98279.56;;;4.02;100.00
7888;BME280;3989;48.810;9.208;2024-01-07T05:29:22;98319.72;;;4.23;100.00
7888;BME280;3989;48.810;9.208;2024-01-07T05:31:49;98321.38;;;4.24;100.00
7888;BME280;3989;48.810;9.208;2024-01-07T05:34:18;98324.19;;;4.22;100.00
7888;BME280;3989;48.810;9.208;2024-01-07T05:36:45;98321.53;;;4.22;100.00
7888;BME280;3989;48.810;9.208;2024-01-07T05:39:13;98307.03;;;4.09;100.00
7888;BME280;3989;48.810;9.208;2024-01-07T05:41:40;98296.38;;;4.01;100.00
7888;BME280;3989;48.810;9.208;2024-01-07T05:44:07;98271.94;;;3.81;100.00
7888;BME280;3989;48.810;9.208;2024-01-07T05:46:37;98228.31;;;3.59;100.00
7888;BME280;3989;48.810;9.208;2024-01-07T05:49:04;98267.47;;;3.82;100.00
7888;BME280;3989;48.810;9.208;2024-01-07T05:51:33;98270.94;;;3.82;100.00
7888;BME280;3989;48.810;9.208;2024-01-07T05:54:08;98266.78;;;3.80;100.00
7888;BME280;3989;48.810;9.208;2024-01-07T05:56:40;98279.56;;;3.84;100.00
7888;BME280;3989;48.810;9.208;2024-01-07T05:59:18;98277.72;;;3.85;100.00
7888;BME280;3989;48.810;9.208;2024-01-07T06:01:47;98291.31;;;3.90;100.00
7888;BME280;3989;48.810;9.208;2024-01-07T06:04:14;98345.13;;;4.24;100.00
7888;BME280;3989;48.810;9.208;2024-01-07T06:06:42;98351.13;;;4.26;100.00
7888;BME280;3989;48.810;9.208;2024-01-07T06:09:09;98343.50;;;4.23;100.00
7888;BME280;3989;48.810;9.208;2024-01-07T06:11:36;98317.91;;;4.06;100.00
7888;BME280;3989;48.810;9.208;2024-01-07T06:14:03;98353.91;;;4.24;100.00
7888;BME280;3989;48.810;9.208;2024-01-07T06:16:31;98345.44;;;4.21;100.00
7888;BME280;3989;48.810;9.208;2024-01-07T06:18:58;98346.94;;;4.23;100.00
7888;BME280;3989;48.810;9.208;2024-01-07T06:21:25;98355.88;;;4.22;100.00
7888;BME280;3989;48.810;9.208;2024-01-07T06:23:53;98345.69;;;4.10;100.00
7888;BME280;3989;48.810;9.208;2024-01-07T06:26:20;98311.31;;;3.92;100.00
7888;BME280;3989;48.810;9.208;2024-01-07T06:28:48;98301.94;;;3.80;100.00
7888;BME280;3989;48.810;9.208;2024-01-07T06:31:15;98286.09;;;3.80;100.00
7888;BME280;3989;48.810;9.208;2024-01-07T06:33:42;98352.00;;;4.17;100.00
7888;BME280;3989;48.810;9.208;2024-01-07T06:36:10;98360.91;;;4.16;100.00
7888;BME280;3989;48.810;9.208;2024-01-07T06:38:37;98377.13;;;4.21;100.00
7888;BME280;3989;48.810;9.208;2024-01-07T06:41:05;98342.78;;;4.03;100.00
7888;BME280;3989;48.810;9.208;2024-01-07T06:43:32;98346.16;;;3.96;100.00
7888;BME280;3989;48.810;9.208;2024-01-07T06:46:00;98397.59;;;4.19;100.00
7888;BME280;3989;48.810;9.208;2024-01-07T06:48:27;98365.03;;;4.01;100.00
7888;BME280;3989;48.810;9.208;2024-01-07T06:50:54;98370.47;;;3.99;100.00
7888;BME280;3989;48.810;9.208;2024-01-07T06:53:29;98392.00;;;4.22;100.00
7888;BME280;3989;48.810;9.208;2024-01-07T06:56:26;98387.03;;;4.19;100.00
7888;BME280;3989;48.810;9.208;2024-01-07T06:59:08;98398.44;;;4.19;100.00
7888;BME280;3989;48.810;9.208;2024-01-07T07:01:36;98340.41;;;3.83;100.00
7888;BME280;3989;48.810;9.208;2024-01-07T07:04:04;98412.59;;;4.18;100.00
7888;BME280;3989;48.810;9.208;2024-01-07T07:06:31;98416.91;;;4.19;100.00
7888;BME280;3989;48.810;9.208;2024-01-07T07:08:58;98409.97;;;4.18;100.00
7888;BME280;3989;48.810;9.208;2024-01-07T07:11:27;98413.56;;;4.17;100.00
7888;BME280;3989;48.810;9.208;2024-01-07T07:13:54;98396.69;;;4.01;100.00
7888;BME280;3989;48.810;9.208;2024-01-07T07:16:21;98416.66;;;4.13;100.00
7888;BME280;3989;48.810;9.208;2024-01-07T07:19:17;98330.28;;;3.51;100.00
7888;BME280;3989;48.810;9.208;2024-01-07T07:21:47;98427.22;;;4.13;100.00
7888;BME280;3989;48.810;9.208;2024-01-07T07:24:14;98324.22;;;3.41;100.00
7888;BME280;3989;48.810;9.208;2024-01-07T07:26:42;98437.38;;;4.08;100.00
7888;BME280;3989;48.810;9.208;2024-01-07T07:29:09;98390.47;;;3.75;100.00
7888;BME280;3989;48.810;9.208;2024-01-07T07:31:37;98392.41;;;3.72;100.00
7888;BME280;3989;48.810;9.208;2024-01-07T07:34:04;98427.66;;;3.81;100.00
7888;BME280;3989;48.810;9.208;2024-01-07T07:36:32;98463.53;;;4.01;100.00
7888;BME280;3989;48.810;9.208;2024-01-07T07:38:59;98377.50;;;3.44;100.00
7888;BME280;3989;48.810;9.208;2024-01-07T07:41:26;98395.09;;;3.53;100.00
7888;BME280;3989;48.810;9.208;2024-01-07T07:43:58;98451.00;;;3.76;100.00
7888;BME280;3989;48.810;9.208;2024-01-07T07:46:31;98427.31;;;3.57;100.00
7888;BME280;3989;48.810;9.208;2024-01-07T07:49:12;98438.25;;;3.62;100.00
7888;BME280;3989;48.810;9.208;2024-01-07T07:51:39;98471.41;;;3.84;100.00
7888;BME280;3989;48.810;9.208;2024-01-07T07:54:06;98438.16;;;3.54;100.00
7888;BME280;3989;48.810;9.208;2024-01-07T07:56:33;98482.25;;;3.81;100.00
7888;BME280;3989;48.810;9.208;2024-01-07T07:59:02;98446.34;;;3.60;100.00
7888;BME280;3989;48.810;9.208;2024-01-07T08:01:30;98379.78;;;3.20;100.00
7888;BME280;3989;48.810;9.208;2024-01-07T08:03:57;98486.00;;;3.78;100.00
7888;BME280;3989;48.810;9.208;2024-01-07T08:06:23;98476.84;;;3.72;100.00
7888;BME280;3989;48.810;9.208;2024-01-07T08:08:50;98495.44;;;3.81;100.00
7888;BME280;3989;48.810;9.208;2024-01-07T08:11:17;98466.44;;;3.71;100.00
7888;BME280;3989;48.810;9.208;2024-01-07T08:13:44;98493.78;;;3.80;100.00
7888;BME280;3989;48.810;9.208;2024-01-07T08:16:12;98499.47;;;3.75;100.00
7888;BME280;3989;48.810;9.208;2024-01-07T08:18:39;98497.38;;;3.79;100.00
7888;BME280;3989;48.810;9.208;2024-01-07T08:21:06;98472.44;;;3.54;100.00
7888;BME280;3989;48.810;9.208;2024-01-07T08:23:33;98512.25;;;3.80;100.00
7888;BME280;3989;48.810;9.208;2024-01-07T08:26:00;98497.28;;;3.70;100.00
7888;BME280;3989;48.810;9.208;2024-01-07T08:28:27;98464.81;;;3.51;100.00
7888;BME280;3989;48.810;9.208;2024-01-07T08:30:54;98487.59;;;3.61;100.00
7888;BME280;3989;48.810;9.208;2024-01-07T08:33:23;98481.03;;;3.56;100.00
7888;BME280;3989;48.810;9.208;2024-01-07T08:35:50;98464.97;;;3.40;100.00
7888;BME280;3989;48.810;9.208;2024-01-07T08:38:17;98491.31;;;3.59;100.00
7888;BME280;3989;48.810;9.208;2024-01-07T08:40:44;98490.38;;;3.50;100.00
7888;BME280;3989;48.810;9.208;2024-01-07T08:43:11;98480.94;;;3.48;100.00
7888;BME280;3989;48.810;9.208;2024-01-07T08:45:38;98407.59;;;2.95;100.00
7888;BME280;3989;48.810;9.208;2024-01-07T08:48:06;98508.97;;;3.58;100.00
7888;BME280;3989;48.810;9.208;2024-01-07T08:50:34;98482.88;;;3.46;100.00
7888;BME280;3989;48.810;9.208;2024-01-07T08:53:01;98531.44;;;3.72;100.00
7888;BME280;3989;48.810;9.208;2024-01-07T08:55:28;98505.78;;;3.55;100.00
7888;BME280;3989;48.810;9.208;2024-01-07T08:57:55;98531.31;;;3.74;100.00
7888;BME280;3989;48.810;9.208;2024-01-07T09:00:22;98491.50;;;3.38;100.00
7888;BME280;3989;48.810;9.208;2024-01-07T09:02:52;98514.38;;;3.57;100.00
7888;BME280;3989;48.810;9.208;2024-01-07T09:05:19;98540.03;;;3.84;100.00
7888;BME280;3989;48.810;9.208;2024-01-07T09:07:47;98549.09;;;3.81;100.00
7888;BME280;3989;48.810;9.208;2024-01-07T09:10:14;98559.75;;;3.89;100.00
7888;BME280;3989;48.810;9.208;2024-01-07T09:12:41;98539.50;;;3.80;100.00
7888;BME280;3989;48.810;9.208;2024-01-07T09:15:08;98521.72;;;3.72;100.00
7888;BME280;3989;48.810;9.208;2024-01-07T09:17:36;98539.22;;;3.74;100.00
7888;BME280;3989;48.810;9.208;2024-01-07T09:20:04;98569.16;;;4.01;100.00
7888;BME280;3989;48.810;9.208;2024-01-07T09:22:33;98565.13;;;4.07;100.00
7888;BME280;3989;48.810;9.208;2024-01-07T09:25:02;98555.53;;;4.06;100.00
7888;BME280;3989;48.810;9.208;2024-01-07T09:27:30;98572.50;;;4.03;100.00
7888;BME280;3989;48.810;9.208;2024-01-07T09:29:57;98524.31;;;3.82;100.00
7888;BME280;3989;48.810;9.208;2024-01-07T09:32:24;98555.03;;;3.93;100.00
7888;BME280;3989;48.810;9.208;2024-01-07T09:34:51;98516.88;;;3.68;100.00
7888;BME280;3989;48.810;9.208;2024-01-07T09:37:19;98564.31;;;3.97;100.00
7888;BME280;3989;48.810;9.208;2024-01-07T09:39:46;98582.06;;;4.14;100.00
7888;BME280;3989;48.810;9.208;2024-01-07T09:42:17;98479.16;;;3.29;100.00
7888;BME280;3989;48.810;9.208;2024-01-07T09:44:45;98491.91;;;3.43;100.00
7888;BME280;3989;48.810;9.208;2024-01-07T09:47:13;98599.75;;;4.04;100.00
7888;BME280;3989;48.810;9.208;2024-01-07T09:49:41;98532.56;;;3.69;100.00
7888;BME280;3989;48.810;9.208;2024-01-07T09:52:09;98601.28;;;4.06;100.00
7888;BME280;3989;48.810;9.208;2024-01-07T09:54:37;98533.97;;;3.64;100.00
7888;BME280;3989;48.810;9.208;2024-01-07T09:57:06;98578.09;;;3.91;100.00
7888;BME280;3989;48.810;9.208;2024-01-07T09:59:35;98590.03;;;3.85;100.00
7888;BME280;3989;48.810;9.208;2024-01-07T10:02:03;98536.34;;;3.48;100.00
7888;BME280;3989;48.810;9.208;2024-01-07T10:04:30;98563.13;;;3.53;100.00
7888;BME280;3989;48.810;9.208;2024-01-07T10:06:57;98452.94;;;2.80;100.00
7888;BME280;3989;48.810;9.208;2024-01-07T10:09:26;98596.84;;;3.68;100.00
7888;BME280;3989;48.810;9.208;2024-01-07T10:11:54;98502.06;;;3.19;100.00
7888;BME280;3989;48.810;9.208;2024-01-07T10:14:21;98539.53;;;3.32;100.00
7888;BME280;3989;48.810;9.208;2024-01-07T10:16:51;98429.50;;;2.67;100.00
7888;BME280;3989;48.810;9.208;2024-01-07T10:19:20;98603.81;;;3.60;100.00
7888;BME280;3989;48.810;9.208;2024-01-07T10:21:59;98556.88;;;3.25;100.00
7888;BME280;3989;48.810;9.208;2024-01-07T10:24:35;98595.50;;;3.45;100.00
7888;BME280;3989;48.810;9.208;2024-01-07T10:27:03;98520.25;;;3.03;100.00
7888;BME280;3989;48.810;9.208;2024-01-07T10:29:30;98551.34;;;3.28;100.00
7888;BME280;3989;48.810;9.208;2024-01-07T10:31:59;98514.25;;;3.10;100.00
7888;BME280;3989;48.810;9.208;2024-01-07T10:34:30;98507.47;;;3.08;100.00
7888;BME280;3989;48.810;9.208;2024-01-07T10:36:59;98514.41;;;2.90;100.00
7888;BME280;3989;48.810;9.208;2024-01-07T10:39:26;98607.69;;;3.46;100.00
7888;BME280;3989;48.810;9.208;2024-01-07T10:41:55;98542.59;;;3.18;100.00
7888;BME280;3989;48.810;9.208;2024-01-07T10:44:25;98579.09;;;3.23;100.00
7888;BME280;3989;48.810;9.208;2024-01-07T10:46:56;98473.03;;;2.61;100.00
7888;BME280;3989;48.810;9.208;2024-01-07T10:49:27;98421.81;;;2.26;100.00
7888;BME280;3989;48.810;9.208;2024-01-07T10:52:02;98513.16;;;2.75;100.00
7888;BME280;3989;48.810;9.208;2024-01-07T10:54:31;98487.44;;;2.48;100.00
7888;BME280;3989;48.810;9.208;2024-01-07T10:57:06;98488.94;;;2.50;100.00
7888;BME280;3989;48.810;9.208;2024-01-07T10:59:36;98577.81;;;2.98;100.00
7888;BME280;3989;48.810;9.208;2024-01-07T11:02:04;98540.47;;;2.83;100.00
7888;BME280;3989;48.810;9.208;2024-01-07T11:04:39;98602.13;;;3.21;100.00
7888;BME280;3989;48.810;9.208;2024-01-07T11:07:18;98628.66;;;3.38;100.00
7888;BME280;3989;48.810;9.208;2024-01-07T11:09:54;98470.31;;;2.33;100.00
7888;BME280;3989;48.810;9.208;2024-01-07T11:12:22;98520.88;;;2.67;100.00
7888;BME280;3989;48.810;9.208;2024-01-07T11:14:50;98482.00;;;2.49;100.00
7888;BME280;3989;48.810;9.208;2024-01-07T11:17:40;98623.41;;;3.38;100.00
7888;BME280;3989;48.810;9.208;2024-01-07T11:20:21;98621.03;;;3.45;100.00
7888;BME280;3989;48.810;9.208;2024-01-07T11:22:52;98568.81;;;3.10;100.00
7888;BME280;3989;48.810;9.208;2024-01-07T11:25:29;98588.94;;;3.30;100.00
7888;BME280;3989;48.810;9.208;2024-01-07T11:27:58;98587.97;;;3.22;100.00
7888;BME280;3989;48.810;9.208;2024-01-07T11:30:27;98634.50;;;3.42;100.00
7888;BME280;3989;48.810;9.208;2024-01-07T11:32:58;98536.44;;;2.79;100.00
7888;BME280;3989;48.810;9.208;2024-01-07T11:35:55;98626.72;;;3.40;100.00
7888;BME280;3989;48.810;9.208;2024-01-07T11:38:24;98625.75;;;3.32;100.00
7888;BME280;3989;48.810;9.208;2024-01-07T11:40:52;98540.31;;;2.75;100.00
7888;BME280;3989;48.810;9.208;2024-01-07T11:43:20;98533.78;;;2.70;100.00
7888;BME280;3989;48.810;9.208;2024-01-07T11:45:49;98433.34;;;1.94;100.00
7888;BME280;3989;48.810;9.208;2024-01-07T11:48:17;98430.47;;;2.07;100.00
7888;BME280;3989;48.810;9.208;2024-01-07T11:50:44;98567.22;;;2.79;100.00
7888;BME280;3989;48.810;9.208;2024-01-07T11:53:13;98488.72;;;2.23;100.00
7888;BME280;3989;48.810;9.208;2024-01-07T11:55:40;98568.00;;;2.60;100.00
7888;BME280;3989;48.810;9.208;2024-01-07T11:58:10;98525.50;;;2.34;100.00
7888;BME280;3989;48.810;9.208;2024-01-07T12:00:37;98628.16;;;2.95;100.00
7888;BME280;3989;48.810;9.208;2024-01-07T12:03:04;98629.66;;;2.88;100.00
7888;BME280;3989;48.810;9.208;2024-01-07T12:05:31;98636.19;;;2.84;100.00
7888;BME280;3989;48.810;9.208;2024-01-07T12:08:00;98514.75;;;2.17;100.00
7888;BME280;3989;48.810;9.208;2024-01-07T12:10:30;98464.78;;;1.86;100.00
7888;BME280;3989;48.810;9.208;2024-01-07T12:12:58;98564.91;;;2.45;100.00
7888;BME280;3989;48.810;9.208;2024-01-07T12:15:26;98643.09;;;2.85;100.00
7888;BME280;3989;48.810;9.208;2024-01-07T12:17:57;98541.00;;;2.28;100.00
7888;BME280;3989;48.810;9.208;2024-01-07T12:20:27;98463.47;;;1.71;100.00
7888;BME280;3989;48.810;9.208;2024-01-07T12:23:05;98471.00;;;1.85;100.00
7888;BME280;3989;48.810;9.208;2024-01-07T12:25:34;98577.94;;;2.47;100.00
7888;BME280;3989;48.810;9.208;2024-01-07T12:28:03;98557.78;;;2.36;100.00
7888;BME280;3989;48.810;9.208;2024-01-07T12:30:33;98555.56;;;2.32;100.00
7888;BME280;3989;48.810;9.208;2024-01-07T12:33:04;98617.38;;;2.58;100.00
7888;BME280;3989;48.810;9.208;2024-01-07T12:35:31;98443.97;;;1.53;100.00
7888;BME280;3989;48.810;9.208;2024-01-07T12:37:59;98643.72;;;2.58;100.00
7888;BME280;3989;48.810;9.208;2024-01-07T12:40:26;98590.91;;;2.29;100.00
7888;BME280;3989;48.810;9.208;2024-01-07T12:42:55;98665.41;;;2.71;100.00
7888;BME280;3989;48.810;9.208;2024-01-07T12:45:22;98477.97;;;1.66;100.00
7888;BME280;3989;48.810;9.208;2024-01-07T12:47:49;98454.28;;;1.35;100.00
7888;BME280;3989;48.810;9.208;2024-01-07T12:50:16;98618.81;;;2.41;100.00
7888;BME280;3989;48.810;9.208;2024-01-07T12:52:44;98582.19;;;2.08;100.00
7888;BME280;3989;48.810;9.208;2024-01-07T12:55:11;98547.03;;;1.88;100.00
7888;BME280;3989;48.810;9.208;2024-01-07T12:57:39;98558.41;;;1.89;100.00
7888;BME280;3989;48.810;9.208;2024-01-07T13:00:09;98655.84;;;2.49;100.00
7888;BME280;3989;48.810;9.208;2024-01-07T13:02:37;98660.50;;;2.36;100.00
7888;BME280;3989;48.810;9.208;2024-01-07T13:05:06;98644.00;;;2.34;100.00
7888;BME280;3989;48.810;9.208;2024-01-07T13:07:34;98559.25;;;1.69;100.00
7888;BME280;3989;48.810;9.208;2024-01-07T13:10:01;98659.13;;;2.32;100.00
7888;BME280;3989;48.810;9.208;2024-01-07T13:12:28;98661.38;;;2.16;100.00
7888;BME280;3989;48.810;9.208;2024-01-07T13:14:55;98648.59;;;2.11;100.00
7888;BME280;3989;48.810;9.208;2024-01-07T13:17:24;98692.31;;;2.24;100.00
7888;BME280;3989;48.810;9.208;2024-01-07T13:19:58;98652.25;;;1.99;100.00
7888;BME280;3989;48.810;9.208;2024-01-07T13:22:25;98617.66;;;1.83;100.00
7888;BME280;3989;48.810;9.208;2024-01-07T13:24:52;98695.78;;;2.24;100.00
7888;BME280;3989;48.810;9.208;2024-01-07T13:27:24;98648.88;;;1.97;100.00
7888;BME280;3989;48.810;9.208;2024-01-07T13:29:51;98636.31;;;1.80;100.00